Time;durP1;ratioP1;P1;durP2;ratioP2;P2;SDS_P1;SDS_P2;PMS_P1;PMS_P2;Temp;Humidity;BMP_temperature;BMP_pressure;BME280_temperature;BME280_humidity;BME280_pressure;Samples;Min_cycle;Max_cycle;Signal;HPM_P1;HPM_P2
2021/04/02 00:00:21;;;;;;;6.50;4.18;;;;;;;;;;5073317;28;20204;-63
2021/04/02 00:02:48;;;;;;;4.55;3.30;;;;;;;;;;5073231;28;20205;-62
2021/04/02 00:05:15;;;;;;;4.13;3.72;;;;;;;;;;5073484;28;20220;-63
2021/04/02 00:07:42;;;;;;;4.05;3.60;;;;;;;;;;5073009;28;20208;-62
2021/04/02 00:10:10;;;;;;;3.83;3.30;;;;;;;;;;5073457;28;20205;-62
2021/04/02 00:12:37;;;;;;;3.80;3.40;;;;;;;;;;5073191;28;20208;-62
2021/04/02 00:15:07;;;;;;;5.15;4.40;;;;;;;;;;5073254;28;20220;-62
2021/04/02 00:17:34;;;;;;;4.70;3.83;;;;;;;;;;5073537;28;20259;-62
2021/04/02 00:20:00;;;;;;;4.88;4.00;;;;;;;;;;5073406;28;20616;-63
2021/04/02 00:22:27;;;;;;;4.32;3.92;;;;;;;;;;5073081;28;20267;-64
2021/04/02 00:24:54;;;;;;;4.15;3.50;;;;;;;;;;5077116;28;20218;-62
2021/04/02 00:27:20;;;;;;;4.65;3.53;;;;;;;;;;5077330;28;20201;-62
2021/04/02 00:29:47;;;;;;;3.67;3.38;;;;;;;;;;5077332;28;20586;-63
2021/04/02 00:32:15;;;;;;;4.40;3.50;;;;;;;;;;5077041;28;20200;-63
2021/04/02 00:34:41;;;;;;;5.32;4.38;;;;;;;;;;5077151;28;20567;-63
2021/04/02 00:37:08;;;;;;;3.72;3.42;;;;;;;;;;5076887;28;20672;-62
2021/04/02 00:39:35;;;;;;;4.50;4.10;;;;;;;;;;5076809;28;20279;-63
2021/04/02 00:42:02;;;;;;;3.92;3.63;;;;;;;;;;5077050;28;20276;-62
2021/04/02 00:44:29;;;;;;;4.00;3.60;;;;;;;;;;5078504;28;20224;-62
2021/04/02 00:46:56;;;;;;;3.70;3.40;;;;;;;;;;5078073;28;20340;-63
2021/04/02 00:49:23;;;;;;;3.80;3.50;;;;;;;;;;5076833;28;20223;-63
2021/04/02 00:51:50;;;;;;;3.35;3.05;;;;;;;;;;5077228;28;20209;-63
2021/04/02 00:54:17;;;;;;;3.45;3.15;;;;;;;;;;5076472;28;20221;-62
2021/04/02 00:56:44;;;;;;;3.58;3.08;;;;;;;;;;5076878;28;20208;-62
2021/04/02 00:59:10;;;;;;;3.22;2.92;;;;;;;;;;5076780;28;20660;-62
2021/04/02 01:01:37;;;;;;;3.10;2.90;;;;;;;;;;5077085;28;20209;-62
2021/04/02 01:04:04;;;;;;;3.50;3.20;;;;;;;;;;5076732;28;20213;-62
2021/04/02 01:06:32;;;;;;;3.30;3.00;;;;;;;;;;5076712;28;20211;-61
2021/04/02 01:08:59;;;;;;;4.15;2.95;;;;;;;;;;5076750;28;20636;-62
2021/04/02 01:11:26;;;;;;;3.15;2.88;;;;;;;;;;5076603;28;20250;-61
2021/04/02 01:13:54;;;;;;;3.15;2.95;;;;;;;;;;5076974;28;20201;-62
2021/04/02 01:16:22;;;;;;;2.97;2.78;;;;;;;;;;5077422;28;20201;-62
2021/04/02 01:18:51;;;;;;;3.40;3.10;;;;;;;;;;5076980;28;20208;-62
2021/04/02 01:21:23;;;;;;;2.70;2.50;;;;;;;;;;5076631;28;20228;-63
2021/04/02 01:24:07;;;;;;;3.28;2.97;;;;;;;;;;5076051;28;20185;-62
2021/04/02 01:26:40;;;;;;;2.50;2.30;;;;;;;;;;5076701;28;20199;-62
2021/04/02 01:29:13;;;;;;;3.28;3.03;;;;;;;;;;5076320;28;20619;-62
2021/04/02 01:31:42;;;;;;;3.10;2.80;;;;;;;;;;5076262;28;20209;-63
2021/04/02 01:34:10;;;;;;;3.20;2.90;;;;;;;;;;5075958;28;20225;-63
2021/04/02 01:36:39;;;;;;;3.30;2.72;;;;;;;;;;5075946;28;20208;-63
2021/04/02 01:39:07;;;;;;;2.80;2.60;;;;;;;;;;5076295;28;20198;-62
2021/04/02 01:41:35;;;;;;;2.75;2.55;;;;;;;;;;5076331;28;20205;-62
2021/04/02 01:44:02;;;;;;;3.17;2.88;;;;;;;;;;5082595;28;20198;-64
2021/04/02 01:46:30;;;;;;;2.92;2.65;;;;;;;;;;5084896;28;20573;-64
2021/04/02 01:48:59;;;;;;;2.78;2.58;;;;;;;;;;5077436;28;20227;-62
2021/04/02 01:51:26;;;;;;;3.30;3.00;;;;;;;;;;5076922;28;20197;-63
2021/04/02 01:53:55;;;;;;;3.05;2.75;;;;;;;;;;5075310;28;20216;-62
2021/04/02 01:56:21;;;;;;;2.70;2.50;;;;;;;;;;5075359;28;20201;-63
2021/04/02 01:58:49;;;;;;;2.97;2.78;;;;;;;;;;5075819;28;20197;-63
2021/04/02 02:01:17;;;;;;;3.25;2.95;;;;;;;;;;5075616;28;20280;-62
2021/04/02 02:03:48;;;;;;;3.58;3.28;;;;;;;;;;5075612;28;20201;-62
2021/04/02 02:06:15;;;;;;;2.95;2.58;;;;;;;;;;5075275;28;20208;-62
2021/04/02 02:08:43;;;;;;;3.05;2.85;;;;;;;;;;5075460;28;20275;-62
2021/04/02 02:11:10;;;;;;;2.92;2.70;;;;;;;;;;5075103;28;20574;-62
2021/04/02 02:13:38;;;;;;;3.55;3.25;;;;;;;;;;5075259;28;20234;-62
2021/04/02 02:16:05;;;;;;;2.80;2.53;;;;;;;;;;5075057;28;20689;-62
2021/04/02 02:18:32;;;;;;;3.00;2.75;;;;;;;;;;5075362;28;20199;-62
2021/04/02 02:20:59;;;;;;;3.10;2.80;;;;;;;;;;5075314;28;20201;-63
2021/04/02 02:23:26;;;;;;;3.53;3.22;;;;;;;;;;5075235;28;20203;-62
2021/04/02 02:25:53;;;;;;;3.90;3.00;;;;;;;;;;5075100;28;20285;-62
2021/04/02 02:28:20;;;;;;;2.95;2.67;;;;;;;;;;5074964;28;20219;-63
2021/04/02 02:30:47;;;;;;;3.40;2.85;;;;;;;;;;5075086;28;20204;-62
2021/04/02 02:33:14;;;;;;;3.65;3.35;;;;;;;;;;5074880;28;20205;-62
2021/04/02 02:35:41;;;;;;;3.65;3.35;;;;;;;;;;5074841;28;20225;-63
2021/04/02 02:38:09;;;;;;;3.80;3.50;;;;;;;;;;5074814;28;20204;-63
2021/04/02 02:40:37;;;;;;;3.40;3.10;;;;;;;;;;5075774;28;20614;-62
2021/04/02 02:43:04;;;;;;;2.95;2.65;;;;;;;;;;5076760;28;20210;-62
2021/04/02 02:45:32;;;;;;;2.65;2.45;;;;;;;;;;5077161;28;20738;-62
2021/04/02 02:47:58;;;;;;;3.08;2.50;;;;;;;;;;5075943;28;20231;-61
2021/04/02 02:50:26;;;;;;;2.83;2.60;;;;;;;;;;5076952;28;20197;-63
2021/04/02 02:52:53;;;;;;;2.67;2.47;;;;;;;;;;5075777;28;20567;-62
2021/04/02 02:55:22;;;;;;;2.47;2.28;;;;;;;;;;5075177;28;20254;-62
2021/04/02 02:57:51;;;;;;;2.40;2.20;;;;;;;;;;5075483;28;20280;-62
2021/04/02 03:00:19;;;;;;;2.40;2.20;;;;;;;;;;5075329;28;20201;-63
2021/04/02 03:02:47;;;;;;;2.58;2.38;;;;;;;;;;5076049;28;20201;-63
2021/04/02 03:05:15;;;;;;;2.38;1.92;;;;;;;;;;5075383;28;20773;-62
2021/04/02 03:07:43;;;;;;;2.65;2.45;;;;;;;;;;5075354;28;20212;-63
2021/04/02 03:10:10;;;;;;;1.92;1.80;;;;;;;;;;5075523;28;20262;-62
2021/04/02 03:12:39;;;;;;;2.47;1.92;;;;;;;;;;5081299;28;20246;-62
2021/04/02 03:15:07;;;;;;;2.22;1.70;;;;;;;;;;5079205;28;20217;-63
2021/04/02 03:17:35;;;;;;;1.65;1.55;;;;;;;;;;5075276;28;20259;-62
2021/04/02 03:20:02;;;;;;;1.77;1.67;;;;;;;;;;5074687;28;20193;-63
2021/04/02 03:22:29;;;;;;;1.60;1.50;;;;;;;;;;5074186;28;20197;-63
2021/04/02 03:24:58;;;;;;;1.75;1.65;;;;;;;;;;5074969;28;20247;-62
2021/04/02 03:27:25;;;;;;;1.40;1.30;;;;;;;;;;5078387;28;20570;-63
2021/04/02 03:29:53;;;;;;;1.80;1.70;;;;;;;;;;5080945;28;20588;-63
2021/04/02 03:32:21;;;;;;;1.85;1.75;;;;;;;;;;5074639;28;20581;-63
2021/04/02 03:34:49;;;;;;;1.60;1.50;;;;;;;;;;5074136;28;20221;-62
2021/04/02 03:37:16;;;;;;;1.45;1.20;;;;;;;;;;5073956;28;20200;-64
2021/04/02 03:39:43;;;;;;;1.63;1.52;;;;;;;;;;5073825;28;20196;-62
2021/04/02 03:42:12;;;;;;;1.75;1.65;;;;;;;;;;5073766;28;20259;-62
2021/04/02 03:44:40;;;;;;;1.85;1.35;;;;;;;;;;5073399;28;20228;-62
2021/04/02 03:47:11;;;;;;;1.40;1.30;;;;;;;;;;5073831;28;20203;-62
2021/04/02 03:49:38;;;;;;;2.60;1.30;;;;;;;;;;5073328;28;20734;-61
2021/04/02 03:52:06;;;;;;;1.23;1.13;;;;;;;;;;5073608;28;20207;-63
2021/04/02 03:54:34;;;;;;;1.65;1.50;;;;;;;;;;5073817;28;20696;-62
2021/04/02 03:57:01;;;;;;;1.40;1.30;;;;;;;;;;5074018;28;20203;-63
2021/04/02 03:59:29;;;;;;;1.23;1.13;;;;;;;;;;5073617;28;20196;-62
2021/04/02 04:01:55;;;;;;;1.67;1.40;;;;;;;;;;5073544;28;20665;-62
2021/04/02 04:07:56;;;;;;;1.58;1.25;;;;;;;;;;5153836;27;20602;-62
2021/04/02 04:10:23;;;;;;;1.65;1.20;;;;;;;;;;5153566;27;20662;-63
2021/04/02 04:12:52;;;;;;;2.20;1.65;;;;;;;;;;5153729;27;20247;-63
2021/04/02 04:15:20;;;;;;;1.20;1.10;;;;;;;;;;5152467;27;20218;-61
2021/04/02 04:17:48;;;;;;;1.75;1.33;;;;;;;;;;5152855;27;20611;-61
2021/04/02 04:20:17;;;;;;;1.70;1.60;;;;;;;;;;5152612;27;20289;-62
2021/04/02 04:22:44;;;;;;;1.60;1.50;;;;;;;;;;5152178;27;20674;-62
2021/04/02 04:25:13;;;;;;;2.03;1.20;;;;;;;;;;5152282;27;20225;-62
2021/04/02 04:27:40;;;;;;;1.88;1.30;;;;;;;;;;5151911;27;20222;-62
2021/04/02 04:30:10;;;;;;;2.10;1.55;;;;;;;;;;5152319;27;20202;-62
2021/04/02 04:32:37;;;;;;;1.42;1.27;;;;;;;;;;5152207;27;20198;-62
2021/04/02 04:35:04;;;;;;;1.50;1.40;;;;;;;;;;5152370;27;20272;-62
2021/04/02 04:37:30;;;;;;;1.40;1.10;;;;;;;;;;5152226;27;20198;-62
2021/04/02 04:39:58;;;;;;;1.88;1.40;;;;;;;;;;5151787;27;20202;-62
2021/04/02 04:42:26;;;;;;;1.60;1.30;;;;;;;;;;5152493;27;20209;-63
2021/04/02 04:44:55;;;;;;;1.25;1.15;;;;;;;;;;5151790;27;20231;-62
2021/04/02 04:47:21;;;;;;;1.25;1.15;;;;;;;;;;5151525;27;20694;-62
2021/04/02 04:49:48;;;;;;;2.00;1.33;;;;;;;;;;5151759;27;20257;-62
2021/04/02 04:52:16;;;;;;;1.58;1.20;;;;;;;;;;5151743;27;20199;-62
2021/04/02 04:54:43;;;;;;;1.55;1.45;;;;;;;;;;5151591;27;20214;-63
2021/04/02 04:57:11;;;;;;;1.20;1.10;;;;;;;;;;5151592;27;20250;-62
2021/04/02 04:59:41;;;;;;;1.65;1.55;;;;;;;;;;5151289;27;20247;-62
2021/04/02 05:02:08;;;;;;;1.63;1.50;;;;;;;;;;5151475;27;20618;-62
2021/04/02 05:04:35;;;;;;;1.73;1.50;;;;;;;;;;5151376;27;20222;-62
2021/04/02 05:07:02;;;;;;;1.80;1.50;;;;;;;;;;5154152;27;20226;-62
2021/04/02 05:09:29;;;;;;;2.20;2.00;;;;;;;;;;5159810;27;20198;-63
2021/04/02 05:11:57;;;;;;;1.60;1.50;;;;;;;;;;5169242;27;20200;-62
2021/04/02 05:14:24;;;;;;;2.47;1.27;;;;;;;;;;5158330;27;20241;-62
2021/04/02 05:16:52;;;;;;;1.10;1.00;;;;;;;;;;5151880;27;20662;-62
2021/04/02 05:19:19;;;;;;;1.30;1.15;;;;;;;;;;5137647;27;20195;-62
2021/04/02 05:21:46;;;;;;;1.67;1.58;;;;;;;;;;5137437;27;20194;-62
2021/04/02 05:24:13;;;;;;;1.73;1.20;;;;;;;;;;5136915;27;20226;-62
2021/04/02 05:26:40;;;;;;;1.83;1.60;;;;;;;;;;5137193;27;20222;-62
2021/04/02 05:29:07;;;;;;;2.10;1.50;;;;;;;;;;5137056;27;20213;-62
2021/04/02 05:31:34;;;;;;;3.08;1.40;;;;;;;;;;5138173;27;20222;-60
2021/04/02 05:34:02;;;;;;;2.35;1.60;;;;;;;;;;5139556;27;20203;-61
2021/04/02 05:36:29;;;;;;;1.60;1.50;;;;;;;;;;5137375;27;20631;-63
2021/04/02 05:38:56;;;;;;;1.38;1.17;;;;;;;;;;5137355;27;20195;-62
2021/04/02 05:41:24;;;;;;;1.50;1.40;;;;;;;;;;5137267;27;20199;-61
2021/04/02 05:43:54;;;;;;;3.28;1.20;;;;;;;;;;5137272;27;20200;-63
2021/04/02 05:46:23;;;;;;;1.92;1.70;;;;;;;;;;5136962;27;20300;-62
2021/04/02 05:48:55;;;;;;;1.60;1.50;;;;;;;;;;5137892;27;20222;-61
2021/04/02 05:51:23;;;;;;;1.67;1.50;;;;;;;;;;5137260;27;20194;-63
2021/04/02 05:53:50;;;;;;;1.63;1.50;;;;;;;;;;5136579;27;20200;-61
2021/04/02 05:56:17;;;;;;;1.50;1.40;;;;;;;;;;5136688;27;20200;-61
2021/04/02 05:58:44;;;;;;;2.03;1.83;;;;;;;;;;5136676;27;20198;-61
2021/04/02 06:01:11;;;;;;;1.60;1.25;;;;;;;;;;5136514;27;20195;-62
2021/04/02 06:03:38;;;;;;;1.80;1.70;;;;;;;;;;5137699;27;20693;-64
2021/04/02 06:06:08;;;;;;;1.55;1.45;;;;;;;;;;5137361;27;20235;-63
2021/04/02 06:08:35;;;;;;;1.80;1.70;;;;;;;;;;5137345;27;20201;-62
2021/04/02 06:11:02;;;;;;;2.20;2.00;;;;;;;;;;5137428;27;20292;-62
2021/04/02 06:13:29;;;;;;;3.83;2.47;;;;;;;;;;5137530;27;20732;-62
2021/04/02 06:15:57;;;;;;;3.25;2.72;;;;;;;;;;5138856;27;20268;-63
2021/04/02 06:18:24;;;;;;;3.65;2.83;;;;;;;;;;5138619;27;20220;-62
2021/04/02 06:20:52;;;;;;;3.25;2.95;;;;;;;;;;5138247;27;20337;-63
2021/04/02 06:23:19;;;;;;;4.78;3.85;;;;;;;;;;5140037;27;20199;-63
2021/04/02 06:25:51;;;;;;;4.15;2.90;;;;;;;;;;5137590;27;20218;-62
2021/04/02 06:28:19;;;;;;;3.78;3.20;;;;;;;;;;5138019;27;20679;-61
2021/04/02 06:30:45;;;;;;;3.20;2.65;;;;;;;;;;5137091;27;20199;-63
2021/04/02 06:33:12;;;;;;;3.10;2.30;;;;;;;;;;5139778;27;20208;-63
2021/04/02 06:35:43;;;;;;;2.95;2.38;;;;;;;;;;5136567;27;20223;-63
2021/04/02 06:38:09;;;;;;;2.78;2.40;;;;;;;;;;5136870;27;20197;-63
2021/04/02 06:40:37;;;;;;;5.15;4.07;;;;;;;;;;5136076;27;20255;-64
2021/04/02 06:43:05;;;;;;;5.43;4.60;;;;;;;;;;5136489;27;20571;-62
2021/04/02 06:45:31;;;;;;;6.03;4.63;;;;;;;;;;5136459;27;20252;-63
2021/04/02 06:48:14;;;;;;;5.95;5.30;;;;;;;;;;5136121;27;20214;-63
2021/04/02 06:50:41;;;;;;;5.80;5.30;;;;;;;;;;5135879;27;20188;-63
2021/04/02 06:53:07;;;;;;;7.90;5.93;;;;;;;;;;5135545;27;20206;-63
2021/04/02 06:55:34;;;;;;;7.40;6.35;;;;;;;;;;5136512;27;20593;-63
2021/04/02 06:58:06;;;;;;;6.90;6.20;;;;;;;;;;5136354;27;20201;-63
2021/04/02 07:00:36;;;;;;;7.18;6.00;;;;;;;;;;5136003;27;20232;-63
2021/04/02 07:03:03;;;;;;;8.00;6.38;;;;;;;;;;5136610;27;20232;-63
2021/04/02 07:05:31;;;;;;;8.23;6.22;;;;;;;;;;5135988;27;20712;-64
2021/04/02 07:08:00;;;;;;;7.63;6.70;;;;;;;;;;5136796;27;20305;-63
2021/04/02 07:10:28;;;;;;;9.65;7.20;;;;;;;;;;5137210;27;20209;-63
2021/04/02 07:12:55;;;;;;;8.32;6.43;;;;;;;;;;5136760;27;20576;-63
2021/04/02 07:15:22;;;;;;;8.20;7.15;;;;;;;;;;5137019;27;20720;-63
2021/04/02 07:17:50;;;;;;;9.10;7.15;;;;;;;;;;5137291;27;20203;-62
2021/04/02 07:20:17;;;;;;;8.85;6.85;;;;;;;;;;5137550;27;20202;-63
2021/04/02 07:22:44;;;;;;;9.80;7.07;;;;;;;;;;5137815;27;20209;-63
2021/04/02 07:25:11;;;;;;;9.48;7.28;;;;;;;;;;5143231;27;20282;-62
2021/04/02 07:27:38;;;;;;;8.63;6.90;;;;;;;;;;5143767;27;20221;-63
2021/04/02 07:30:07;;;;;;;8.93;7.53;;;;;;;;;;5136164;27;20204;-63
2021/04/02 07:32:36;;;;;;;8.45;6.90;;;;;;;;;;5135971;27;20213;-63
2021/04/02 07:35:03;;;;;;;11.27;7.72;;;;;;;;;;5135402;27;20571;-63
2021/04/02 07:37:36;;;;;;;8.75;7.68;;;;;;;;;;5135117;27;20662;-63
2021/04/02 07:40:04;;;;;;;14.82;9.75;;;;;;;;;;5135300;27;20190;-64
2021/04/02 07:42:31;;;;;;;11.50;8.50;;;;;;;;;;5134529;27;20704;-63
2021/04/02 07:44:58;;;;;;;12.90;9.77;;;;;;;;;;5134625;27;20234;-64
2021/04/02 07:47:25;;;;;;;11.32;9.45;;;;;;;;;;5135049;27;20693;-63
2021/04/02 07:49:58;;;;;;;11.73;8.40;;;;;;;;;;5134844;27;20200;-63
2021/04/02 07:52:31;;;;;;;10.10;9.05;;;;;;;;;;5134968;27;20297;-64
2021/04/02 07:55:08;;;;;;;12.88;9.48;;;;;;;;;;5134421;27;20236;-62
2021/04/02 07:57:49;;;;;;;10.55;9.10;;;;;;;;;;5134157;27;20193;-63
2021/04/02 08:00:16;;;;;;;12.15;9.80;;;;;;;;;;5134637;27;20189;-63
2021/04/02 08:02:44;;;;;;;9.35;8.02;;;;;;;;;;5134354;27;20202;-63
2021/04/02 08:05:16;;;;;;;9.73;8.45;;;;;;;;;;5134277;28;20312;-63
2021/04/02 08:07:43;;;;;;;9.32;8.02;;;;;;;;;;5133899;28;20266;-62
2021/04/02 08:10:11;;;;;;;10.32;8.30;;;;;;;;;;5134085;28;20206;-63
2021/04/02 08:12:38;;;;;;;8.82;7.93;;;;;;;;;;5134463;28;20206;-62
2021/04/02 08:15:09;;;;;;;8.68;6.50;;;;;;;;;;5134205;28;20221;-62
2021/04/02 08:17:36;;;;;;;15.48;6.97;;;;;;;;;;5134180;28;20213;-62
2021/04/02 08:20:03;;;;;;;9.88;6.68;;;;;;;;;;5134333;28;20296;-63
2021/04/02 08:22:31;;;;;;;7.82;5.60;;;;;;;;;;5134077;28;20198;-63
2021/04/02 08:25:00;;;;;;;7.72;5.05;;;;;;;;;;5133622;28;20294;-63
2021/04/02 08:27:27;;;;;;;7.65;5.45;;;;;;;;;;5134026;28;20213;-62
2021/04/02 08:30:02;;;;;;;9.52;6.80;;;;;;;;;;5134036;28;20203;-63
2021/04/02 08:32:29;;;;;;;8.43;5.68;;;;;;;;;;5133505;28;20201;-63
2021/04/02 08:34:56;;;;;;;7.53;6.40;;;;;;;;;;5133945;28;20225;-62
2021/04/02 08:37:22;;;;;;;5.78;5.20;;;;;;;;;;5134001;28;20195;-62
2021/04/02 08:39:50;;;;;;;6.47;5.63;;;;;;;;;;5133746;28;20574;-62
2021/04/02 08:42:17;;;;;;;8.85;5.43;;;;;;;;;;5134224;28;20248;-63
2021/04/02 08:44:45;;;;;;;7.07;5.63;;;;;;;;;;5134179;28;20297;-62
2021/04/02 08:47:12;;;;;;;5.50;5.00;;;;;;;;;;5133977;28;20217;-63
2021/04/02 08:49:40;;;;;;;7.57;5.53;;;;;;;;;;5134576;28;20606;-62
2021/04/02 08:52:08;;;;;;;6.38;4.35;;;;;;;;;;5134166;27;20206;-61
2021/04/02 08:54:34;;;;;;;6.15;5.45;;;;;;;;;;5137711;27;20225;-62
2021/04/02 08:57:02;;;;;;;6.03;3.88;;;;;;;;;;5138014;27;20198;-62
2021/04/02 08:59:30;;;;;;;8.70;5.95;;;;;;;;;;5137862;27;20212;-63
2021/04/02 09:01:57;;;;;;;7.38;5.22;;;;;;;;;;5137421;27;20213;-62
2021/04/02 09:04:24;;;;;;;6.80;4.93;;;;;;;;;;5137501;27;20232;-62
2021/04/02 09:06:51;;;;;;;5.85;4.60;;;;;;;;;;5137129;27;20747;-62
2021/04/02 09:09:18;;;;;;;5.60;4.32;;;;;;;;;;5137749;27;20214;-62
2021/04/02 09:11:46;;;;;;;6.80;4.05;;;;;;;;;;5137196;27;20205;-62
2021/04/02 09:14:14;;;;;;;5.82;4.22;;;;;;;;;;5137389;27;20229;-63
2021/04/02 09:16:41;;;;;;;6.68;3.85;;;;;;;;;;5137436;27;20209;-61
2021/04/02 09:19:09;;;;;;;6.60;3.35;;;;;;;;;;5137236;27;20582;-63
2021/04/02 09:21:36;;;;;;;5.50;3.72;;;;;;;;;;5137355;27;20252;-61
2021/04/02 09:24:04;;;;;;;5.60;3.97;;;;;;;;;;5137266;27;20206;-62
2021/04/02 09:26:35;;;;;;;9.25;4.45;;;;;;;;;;5137334;27;20221;-62
2021/04/02 09:29:02;;;;;;;5.32;4.43;;;;;;;;;;5137353;27;20179;-62
2021/04/02 09:31:32;;;;;;;7.63;3.97;;;;;;;;;;5137355;27;20199;-62
2021/04/02 09:34:00;;;;;;;5.97;4.75;;;;;;;;;;5137192;27;20209;-63
2021/04/02 09:36:28;;;;;;;8.55;5.70;;;;;;;;;;5137420;27;20197;-62
2021/04/02 09:39:04;;;;;;;8.93;7.07;;;;;;;;;;5137199;27;20255;-63
2021/04/02 09:41:31;;;;;;;7.90;5.13;;;;;;;;;;5137155;27;20560;-62
2021/04/02 09:44:05;;;;;;;10.55;4.80;;;;;;;;;;5136826;27;20210;-62
2021/04/02 09:46:34;;;;;;;6.55;5.18;;;;;;;;;;5136531;27;20743;-61
2021/04/02 09:49:08;;;;;;;10.20;4.60;;;;;;;;;;5136964;27;20199;-62
2021/04/02 09:51:36;;;;;;;12.63;5.07;;;;;;;;;;5137125;27;20213;-63
2021/04/02 09:54:02;;;;;;;9.45;5.60;;;;;;;;;;5137246;27;20343;-63
2021/04/02 09:56:29;;;;;;;9.23;5.00;;;;;;;;;;5140116;27;20568;-63
2021/04/02 09:58:56;;;;;;;6.60;4.93;;;;;;;;;;5141675;27;20207;-62
2021/04/02 10:01:23;;;;;;;10.32;6.22;;;;;;;;;;5136933;27;20195;-62
2021/04/02 10:03:51;;;;;;;11.95;6.35;;;;;;;;;;5136061;27;20198;-62
2021/04/02 10:06:18;;;;;;;13.57;7.43;;;;;;;;;;5135952;27;20219;-62
2021/04/02 10:08:45;;;;;;;13.65;8.48;;;;;;;;;;5136412;27;20199;-62
2021/04/02 10:11:12;;;;;;;10.27;7.25;;;;;;;;;;5136442;27;20206;-62
2021/04/02 10:13:39;;;;;;;8.95;6.82;;;;;;;;;;5135969;27;20206;-64
2021/04/02 10:16:06;;;;;;;9.15;7.57;;;;;;;;;;5135854;27;20222;-63
2021/04/02 10:18:33;;;;;;;11.07;8.25;;;;;;;;;;5136215;27;20206;-63
2021/04/02 10:21:03;;;;;;;11.55;8.38;;;;;;;;;;5136214;27;20195;-62
2021/04/02 10:23:29;;;;;;;14.20;8.90;;;;;;;;;;5136182;27;20202;-63
2021/04/02 10:25:56;;;;;;;15.00;7.93;;;;;;;;;;5136057;27;20770;-63
2021/04/02 10:28:23;;;;;;;13.00;7.47;;;;;;;;;;5135948;27;20625;-62
2021/04/02 10:30:50;;;;;;;11.60;7.97;;;;;;;;;;5135552;27;20205;-62
2021/04/02 10:33:17;;;;;;;10.55;6.85;;;;;;;;;;5135451;27;20209;-62
2021/04/02 10:35:44;;;;;;;8.82;5.88;;;;;;;;;;5135859;27;20237;-63
2021/04/02 10:38:12;;;;;;;10.70;5.70;;;;;;;;;;5135826;27;20199;-62
2021/04/02 10:40:39;;;;;;;7.15;4.50;;;;;;;;;;5135580;27;20673;-63
2021/04/02 10:43:06;;;;;;;5.57;3.60;;;;;;;;;;5135514;27;20254;-63
2021/04/02 10:45:32;;;;;;;7.90;3.42;;;;;;;;;;5135651;27;20228;-62
2021/04/02 10:47:59;;;;;;;9.77;3.20;;;;;;;;;;5135712;27;20583;-63
2021/04/02 10:50:27;;;;;;;8.95;3.33;;;;;;;;;;5135837;27;20199;-62
2021/04/02 10:52:54;;;;;;;9.82;3.10;;;;;;;;;;5135513;27;20224;-62
2021/04/02 10:55:21;;;;;;;3.67;2.67;;;;;;;;;;5135520;27;20276;-62
2021/04/02 10:57:48;;;;;;;2.80;1.90;;;;;;;;;;5135140;27;20576;-63
2021/04/02 11:00:16;;;;;;;8.00;2.13;;;;;;;;;;5135203;27;20247;-63
2021/04/02 11:02:43;;;;;;;6.90;3.05;;;;;;;;;;5136594;27;20201;-62
2021/04/02 11:05:11;;;;;;;5.03;2.30;;;;;;;;;;5135515;27;20218;-63
2021/04/02 11:07:38;;;;;;;9.70;3.17;;;;;;;;;;5135285;27;20698;-63
2021/04/02 11:10:08;;;;;;;4.45;2.78;;;;;;;;;;5135604;27;20578;-63
2021/04/02 11:12:36;;;;;;;4.78;2.45;;;;;;;;;;5135074;27;20666;-62
2021/04/02 11:15:03;;;;;;;3.45;2.95;;;;;;;;;;5135453;27;20229;-63
2021/04/02 11:17:30;;;;;;;4.10;2.30;;;;;;;;;;5135231;27;20222;-63
2021/04/02 11:19:58;;;;;;;9.25;3.42;;;;;;;;;;5135384;27;20198;-64
2021/04/02 11:22:25;;;;;;;9.10;3.10;;;;;;;;;;5135336;27;20203;-63
2021/04/02 11:24:52;;;;;;;12.40;3.90;;;;;;;;;;5135924;27;20218;-62
2021/04/02 11:27:19;;;;;;;4.15;3.25;;;;;;;;;;5135261;27;20314;-62
2021/04/02 11:29:46;;;;;;;6.35;3.28;;;;;;;;;;5136228;27;20293;-63
2021/04/02 11:32:13;;;;;;;4.60;3.03;;;;;;;;;;5135394;27;20255;-63
2021/04/02 11:34:42;;;;;;;7.75;3.33;;;;;;;;;;5135634;27;20289;-63
2021/04/02 11:37:09;;;;;;;5.38;3.42;;;;;;;;;;5135029;27;20252;-62
2021/04/02 11:39:36;;;;;;;5.10;3.20;;;;;;;;;;5135220;27;20201;-64
2021/04/02 11:42:03;;;;;;;3.20;2.80;;;;;;;;;;5135278;27;20225;-63
2021/04/02 11:44:30;;;;;;;7.55;3.40;;;;;;;;;;5134643;27;20222;-62
2021/04/02 11:46:58;;;;;;;9.65;3.85;;;;;;;;;;5134314;27;20650;-64
2021/04/02 11:49:24;;;;;;;12.93;3.25;;;;;;;;;;5134403;27;20199;-62
2021/04/02 11:51:51;;;;;;;6.20;2.90;;;;;;;;;;5134693;27;20199;-63
2021/04/02 11:54:18;;;;;;;6.53;3.60;;;;;;;;;;5134987;27;20256;-63
2021/04/02 11:56:45;;;;;;;7.78;3.35;;;;;;;;;;5134534;27;20202;-62
2021/04/02 11:59:12;;;;;;;4.25;2.75;;;;;;;;;;5135772;27;20202;-64
2021/04/02 12:01:39;;;;;;;7.78;3.20;;;;;;;;;;5135835;27;20202;-63
2021/04/02 12:04:09;;;;;;;13.63;3.72;;;;;;;;;;5134444;27;20199;-63
2021/04/02 12:06:36;;;;;;;6.80;3.45;;;;;;;;;;5135289;28;20222;-64
2021/04/02 12:09:03;;;;;;;8.63;3.40;;;;;;;;;;5134837;28;20668;-63
2021/04/02 12:11:30;;;;;;;6.47;3.65;;;;;;;;;;5134589;28;20207;-63
2021/04/02 12:13:56;;;;;;;6.18;3.45;;;;;;;;;;5134326;28;20202;-63
2021/04/02 12:16:23;;;;;;;6.88;3.60;;;;;;;;;;5134012;28;20195;-63
2021/04/02 12:18:50;;;;;;;9.85;4.13;;;;;;;;;;5134146;28;20222;-63
2021/04/02 12:21:18;;;;;;;6.32;3.63;;;;;;;;;;5135987;28;20730;-64
2021/04/02 12:23:44;;;;;;;8.90;3.83;;;;;;;;;;5133947;28;20212;-63
2021/04/02 12:26:11;;;;;;;6.68;3.92;;;;;;;;;;5134653;28;20222;-63
2021/04/02 12:28:38;;;;;;;8.88;3.85;;;;;;;;;;5137481;27;20275;-63
2021/04/02 12:31:05;;;;;;;6.43;3.80;;;;;;;;;;5139539;27;20208;-62
2021/04/02 12:33:32;;;;;;;8.35;4.20;;;;;;;;;;5138520;27;20210;-62
2021/04/02 12:35:59;;;;;;;7.55;5.10;;;;;;;;;;5138308;27;20719;-63
2021/04/02 12:38:28;;;;;;;7.75;5.38;;;;;;;;;;5139540;27;20194;-62
2021/04/02 12:40:55;;;;;;;7.22;4.82;;;;;;;;;;5138436;27;20205;-62
2021/04/02 12:43:21;;;;;;;4.68;3.80;;;;;;;;;;5138590;27;20247;-62
2021/04/02 12:45:48;;;;;;;8.23;3.55;;;;;;;;;;5138974;27;20279;-63
2021/04/02 12:48:15;;;;;;;7.55;3.78;;;;;;;;;;5138413;27;20590;-63
2021/04/02 12:50:42;;;;;;;11.02;4.07;;;;;;;;;;5139358;27;20212;-62
2021/04/02 12:53:08;;;;;;;13.80;4.40;;;;;;;;;;5140060;27;20198;-63
2021/04/02 12:55:39;;;;;;;6.13;3.90;;;;;;;;;;5141789;27;20215;-64
2021/04/02 12:58:07;;;;;;;8.82;3.50;;;;;;;;;;5149647;27;20317;-63
2021/04/02 13:00:33;;;;;;;10.38;4.05;;;;;;;;;;5149091;27;20670;-62
2021/04/02 13:03:00;;;;;;;9.88;3.60;;;;;;;;;;5148119;27;20224;-63
2021/04/02 13:05:27;;;;;;;6.35;3.28;;;;;;;;;;5143183;27;20226;-63
2021/04/02 13:07:54;;;;;;;6.32;2.72;;;;;;;;;;5139494;27;20218;-62
2021/04/02 13:10:21;;;;;;;7.93;3.55;;;;;;;;;;5139196;27;20206;-63
2021/04/02 13:12:50;;;;;;;9.63;2.97;;;;;;;;;;5137980;27;20205;-63
2021/04/02 13:15:17;;;;;;;8.55;3.10;;;;;;;;;;5137673;27;20593;-63
2021/04/02 13:17:46;;;;;;;8.48;3.28;;;;;;;;;;5136925;27;20206;-63
2021/04/02 13:20:14;;;;;;;3.97;2.97;;;;;;;;;;5137015;27;20289;-63
2021/04/02 13:22:41;;;;;;;5.63;3.50;;;;;;;;;;5136722;27;20252;-62
2021/04/02 13:25:08;;;;;;;10.48;3.30;;;;;;;;;;5137437;27;20569;-62
2021/04/02 13:27:35;;;;;;;7.47;2.85;;;;;;;;;;5137287;27;20214;-62
2021/04/02 13:30:09;;;;;;;6.32;2.88;;;;;;;;;;5137527;27;20201;-63
2021/04/02 13:32:36;;;;;;;7.07;2.85;;;;;;;;;;5137688;27;20183;-63
2021/04/02 13:35:03;;;;;;;5.15;2.72;;;;;;;;;;5137998;27;20226;-62
2021/04/02 13:37:30;;;;;;;7.78;3.00;;;;;;;;;;5142039;27;20199;-63
2021/04/02 13:39:57;;;;;;;5.97;3.28;;;;;;;;;;5145723;27;20202;-63
2021/04/02 13:42:24;;;;;;;4.85;3.20;;;;;;;;;;5137530;27;20219;-63
2021/04/02 13:44:50;;;;;;;8.27;3.25;;;;;;;;;;5136877;27;20225;-62
2021/04/02 13:47:18;;;;;;;8.60;3.30;;;;;;;;;;5137574;27;20222;-62
2021/04/02 13:49:45;;;;;;;5.35;2.88;;;;;;;;;;5137196;27;20624;-63
2021/04/02 13:52:11;;;;;;;10.07;3.63;;;;;;;;;;5136934;27;20254;-64
2021/04/02 13:54:38;;;;;;;5.70;3.40;;;;;;;;;;5137302;27;20224;-61
2021/04/02 13:57:05;;;;;;;6.53;2.75;;;;;;;;;;5136732;27;20205;-63
2021/04/02 13:59:32;;;;;;;7.75;3.40;;;;;;;;;;5136416;27;20567;-62
2021/04/02 14:01:59;;;;;;;8.02;3.65;;;;;;;;;;5136701;27;20730;-63
2021/04/02 14:04:27;;;;;;;5.25;3.38;;;;;;;;;;5136259;27;20268;-63
2021/04/02 14:06:53;;;;;;;4.45;3.00;;;;;;;;;;5136120;27;20217;-62
2021/04/02 14:09:20;;;;;;;9.88;3.63;;;;;;;;;;5135995;27;20342;-61
2021/04/02 14:11:47;;;;;;;11.93;4.15;;;;;;;;;;5136132;27;20213;-64
2021/04/02 14:14:14;;;;;;;11.32;4.25;;;;;;;;;;5138518;27;20233;-62
2021/04/02 14:16:43;;;;;;;11.35;3.20;;;;;;;;;;5144595;27;20195;-61
2021/04/02 14:19:10;;;;;;;7.10;2.60;;;;;;;;;;5136884;27;20329;-61
2021/04/02 14:21:38;;;;;;;7.60;2.92;;;;;;;;;;5136355;27;20254;-64
2021/04/02 14:24:05;;;;;;;7.30;2.50;;;;;;;;;;5135791;27;20201;-64
2021/04/02 14:26:32;;;;;;;11.05;3.38;;;;;;;;;;5135958;27;20201;-62
2021/04/02 14:28:59;;;;;;;11.48;3.28;;;;;;;;;;5136219;27;20585;-61
2021/04/02 14:31:25;;;;;;;6.47;2.83;;;;;;;;;;5135801;27;20202;-63
2021/04/02 14:33:52;;;;;;;9.18;3.25;;;;;;;;;;5135854;27;20223;-61
2021/04/02 14:36:19;;;;;;;5.15;2.97;;;;;;;;;;5135917;27;20203;-61
2021/04/02 14:38:47;;;;;;;6.18;2.67;;;;;;;;;;5135942;27;20198;-62
2021/04/02 14:41:13;;;;;;;8.55;2.95;;;;;;;;;;5136090;27;20199;-62
2021/04/02 14:43:40;;;;;;;14.60;3.20;;;;;;;;;;5136981;27;20198;-63
2021/04/02 14:46:07;;;;;;;7.80;3.08;;;;;;;;;;5136134;27;20702;-62